Airfield :
LOGIN :

Register | Disclaimer

   EN    FR    IT 

 










Legend :    VFR   Marginal VFR   IFR   Intensive IFR   Very Intensive IFR
Visi :
Ceiling :
>= 8 km
>= 3000ft
5 to 8 km
1000 to 3000 ft
1500m to 5 km
500 to 1000 ft
800 to 1500m
200 to 500 ft
< 800m
< 200 ft
Symbols :   Thunderstorms  Fog  Heavy snow  Heavy precipitations  Wind > 20 kt
SIGMETs :     Misc.  Thunderstorms  Icing  Turbulence  Mountain Waves  Volcanic Ashes






- Airport Elevation : 870 ft
- IATA code : ETZ


LFJL - Metz Nancy Lorraine

CURRENT METAR :
  • 301300Z AUTO 01006KT 9999 BKN011 OVC018 07/06 Q1021 TEMPO 3000 -RADZ BR SCT010 BKN030

EXPIRED METARs :
  • 301230Z AUTO 36007KT 9999 FEW007 BKN011 OVC016 07/06 Q1021 TEMPO 3000 -RADZ BR SCT010 BKN030
  • 301200Z AUTO 36007KT 8000 BKN005 OVC011 07/06 Q1021 TEMPO 3000 -RADZ BR SCT010 BKN030
  • 301130Z AUTO 35008KT 8000 BKN005 OVC034 07/06 Q1021 TEMPO 3000 BR
  • 301100Z AUTO 36006KT 7000 SCT005 OVC036 07/05 Q1021 TEMPO 3000 BR BKN008
  • 301030Z AUTO 01006KT 6000 FEW005 OVC036 06/05 Q1022 TEMPO 3000 BR BKN008

TAF TAF LFJL
Valid from the 30 at 12:00 until the 01 at 12:00 UTC


301100Z 3012/0112 01007KT 7000 BKN010 OVC030
TEMPO 3012/0112 3000 -RADZ BR BKN003
PROB30
TEMPO 3012/3022 SCT010 BKN030
BECMG 0110/0112 BKN015



MET'MAP, your aeronautical weather chart ! - Copyright ORBIFLY December 2007 - Disclaimer

ORBIFLY MET'MAP TEAM :

Programming & Development : Alexandra Zaïnal
Original concept : Baudouin d'Aumeries
Technical & hardware support : Manuel Goepfert
Assistance : Marc-Olivier Méhu




SOURCES & CREDITS :

   NOAA